x

Smith Island, Wa (sisw1) Weather Station

6:00 - Tue 21st Oct 2014 All times are PDT. -7 hours from GMT.

  • Wind
    37mph, 43mph gusts
  • Ar Temp 58°f
  • Sea Pressure 1008.4mb
  • Smith Island, Wa
  • Smith Island, Wa

More Historic Weather Station data

Upgrade to MSW Pro to gain access to the past 30 days of data for over 8000 Wavebouys and Weather Stations around the globe.

Join Pro

Comparision Forecast

View Surf forecast
   
Ter 10/21 6:00 37 43 mph 1008.4mb 58f
5:00 39 44 mph 1008.8mb 58f
4:00 34 40 mph 1009.2mb 56f
3:00 30 34 mph 1009.9mb 57f
2:00 32 36 mph 1010mb 57f
1:00 28 30 mph 1010.6mb 57f
12:00 22 25 mph 1011.3mb 57f
11:00 17 18 mph 1011.4mb 56f
10:00 17 18 mph 1011.4mb 54f
9:00 16 17 mph 1010.9mb 53f
8:00 9 10 mph 1010.3mb 52f
7:00 14 16 mph 1010.1mb 53f
6:00 16 18 mph 1009.4mb 53f
5:00 18 21 mph 1008.8mb 53f
4:00 20 22 mph 1008.4mb 53f
3:00 18 20 mph 1008.9mb 53f
2:00 15 16 mph 1008.4mb 53f
1:00 16 17 mph 1007.9mb 53f
12:00 16
mph
1008mb 54f
Seg 10/20 11:00 10 11 mph 1007.8mb 53f
10:00 9
mph
1007.6mb 53f
9:00 5 7 mph 1007.4mb 53f
8:00 9
mph
1007.2mb 54f
7:00 10 13 mph 1006.9mb 56f
6:00 5 6 mph 1006.9mb 55f
5:00 2
mph
1007mb 55f
4:00 17 18 mph 1006.9mb 57f
3:00 14 15 mph 1006.7mb 57f
2:00 7 8 mph 1006.8mb 60f
1:00 5 6 mph 1006.9mb 57f
12:00 5 7 mph 1007.1mb 57f
11:00 5 6 mph 1007.2mb 55f
10:00 7
mph
1006.6mb 55f
9:00 6 7 mph 1005.9mb 53f
8:00 7
mph
1004.9mb 53f
7:00 16 17 mph 1004.7mb 55f
6:00 14 15 mph 1004.6mb 55f
5:00 3 6 mph 1004.8mb 54f
4:00 7 8 mph 1005mb 53f
3:00 9 10 mph 1004.7mb 55f
2:00 11 15 mph 1004.4mb 55f
1:00 10 11 mph 1004.8mb 53f
12:00 8 9 mph 1004.9mb 54f
Dom 10/19 11:00 13 14 mph 1004.9mb 54f
10:00 5 6 mph 1005.1mb 55f
9:00 17 18 mph 1004.7mb 56f
8:00 20 21 mph 1003.6mb 58f
7:00 28 30 mph 1002.8mb 63f
6:00 31 33 mph 1002.6mb 63f
5:00 33 37 mph 1002.7mb 64f
4:00 36 39 mph 1002.7mb 65f
3:00 31 34 mph 1003.2mb 65f
2:00 37 41 mph 1003.3mb 66f
1:00 36 38 mph 1003.9mb 65f
12:00 38 43 mph 1003.8mb 64f
11:00 38 41 mph 1003.9mb 65f
10:00 32 38 mph 1004.2mb 63f
9:00 29 30 mph 1004.6mb 60f
8:00 26 28 mph 1004.7mb 58f
7:00 7 13 mph 1005.3mb 56f
6:00  -  1 mph 1006.5mb 53f
5:00 6
mph
1007.2mb 57f
4:00 9 11 mph 1007.9mb 60f
3:00 8 14 mph 1007.8mb 60f
2:00 10 11 mph 1008.2mb 57f
1:00 20 21 mph 1008.6mb 60f
12:00 22 23 mph 1008.3mb 58f
Sáb 10/18 11:00 25 26 mph 1008.7mb 58f
10:00 29 33 mph 1009.2mb 60f
9:00 11 15 mph 1010.5mb 60f
8:00 7 8 mph 1011.4mb 59f
7:00 15 16 mph 1012mb 59f
6:00 15 16 mph 1012.2mb 56f
5:00 21 22 mph 1012.1mb 58f
4:00 17
mph
1013mb 59f
3:00 18 20 mph 1012.8mb 62f
2:00 13 15 mph 1013.1mb 61f
1:00 10 11 mph 1013.3mb 60f
12:00 5 6 mph 1013.2mb 59f
11:00 2 5 mph 1013.1mb 57f
10:00 6
mph
1012.7mb 53f
9:00 13 14 mph 1011.9mb 55f
8:00 8 10 mph 1011.6mb 56f
7:00 15 16 mph 1011.4mb 56f
6:00 18 20 mph 1011.3mb 55f
5:00 14 15 mph 1010.9mb 55f
4:00 20 21 mph 1010.7mb 55f
3:00 17 20 mph 1010.2mb 55f